Hampton, VA (23668)

10:30 AM EDT on August 31, 2016 (GMT -0400)
East Hampton | | Change Station

Elev 0 ft 37.03 °N, 76.34 °W | Updated 16 seconds ago

Scattered Clouds
Scattered Clouds
82.4 °F
Feels Like 84 °F
N
1.3
Wind Variable Wind from NNW
Gusts 2.5 mph

Today
High -- | Low -- °F
--% Chance of Precip.
Yesterday
High -- | Low -- °F
Precip. -- in
Pressure 30.02 in
Visibility 10.0 miles
Clouds Scattered Clouds 1500 ft
Scattered Clouds 20000 ft
Heat Index 84 °F
Dew Point 64 °F
Humidity 53%
Rainfall 0.00 in
Snow Depth Not available.
6:35 AM 7:34 PM
Waning Crescent, 1% visible
METAR KLFI 311358Z 35006KT 10SM SCT015 SCT200 28/23 A3000 RMK AO2A SLP166 T02820232 $
Pressure 30.02 in
Visibility 10.0 miles
Clouds Scattered Clouds 1500 ft
Scattered Clouds 20000 ft
Heat Index 84 °F
Dew Point 64 °F
Humidity 53%
Rainfall 0.00 in
Snow Depth Not available.
6:35 AM 7:34 PM
Waning Crescent, 1% visible
METAR KLFI 311358Z 35006KT 10SM SCT015 SCT200 28/23 A3000 RMK AO2A SLP166 T02820232 $

10-Day Weather Forecast

Almanac

Astronomy

Aug. 31, 2016 Rise Set
Actual Time
Civil Twilight
Nautical Twilight
Astronomical Twilight
Moon
Length of Visible Light
Length of Day
Tomorrow will be .
, % of the Moon is Illuminated

Today's Extremes

State Highs State Lows

Community

WunderPhotos

Upload Photos

1,936,091 photos uploaded!

WunderBlog® & News

Nearby

Air Quality

  Air Quality AQ Index Pollutant
Not available.

Snow Depth

Station Depth Elevation

Earthquake Activity

City Distance Mag. Time & Date
Minimum magnitude displayed is 2.5.

Coastal Water Temperatures

Place Temperature

Stations

Nearby Weather Stations

Station Location Temp. Windchill Dew Point Humidity Wind Precip. Elev Updated Type
                   

Watches & Warnings

There are currently no watches in effect.